Time,TemperatureF,DewpointF,PressureIn,WindDirection,WindDirectionDegrees,WindSpeedMPH,WindSpeedGustMPH,Humidity,HourlyPrecipIn,Conditions,Clouds,dailyrainin,SoftwareType,DateUTC
2013-06-30 00:02:00,63.0,55.0,30.10,SW,230,15.0,25.0,77,-99.99,,,-99.99,,2013-06-30 06:02:00,
2013-06-30 00:12:00,63.0,55.0,30.10,SW,230,15.0,25.0,77,-99.99,,,-99.99,,2013-06-30 06:12:00,
2013-06-30 00:23:00,64.0,55.0,30.11,SW,230,14.0,18.0,72,-99.99,,,-99.99,,2013-06-30 06:23:00,
2013-06-30 00:43:00,63.0,55.0,30.11,SW,230,14.0,-999.0,77,-99.99,,,-99.99,,2013-06-30 06:43:00,
2013-06-30 00:53:00,63.0,55.0,30.11,SW,230,12.0,-999.0,77,-99.99,,,-99.99,,2013-06-30 06:53:00,
2013-06-30 01:02:00,63.0,55.0,30.11,SW,230,12.0,-999.0,77,-99.99,,,-99.99,,2013-06-30 07:02:00,
2013-06-30 01:22:00,63.0,55.0,30.12,West,270,7.0,-999.0,77,-99.99,,,-99.99,,2013-06-30 07:22:00,
2013-06-30 01:33:00,63.0,55.0,30.14,North,0,0.0,-999.0,77,-99.99,,,-99.99,,2013-06-30 07:33:00,
2013-06-30 01:44:00,63.0,55.0,30.14,North,0,0.0,-999.0,77,-99.99,,,-99.99,,2013-06-30 07:44:00,
2013-06-30 02:02:00,63.0,55.0,30.13,North,0,0.0,-999.0,77,-99.99,,,-99.99,,2013-06-30 08:02:00,
2013-06-30 02:22:00,61.0,55.0,30.13,North,0,0.0,-999.0,82,-99.99,,,-99.99,,2013-06-30 08:22:00,
2013-06-30 02:33:00,61.0,54.0,30.13,North,0,0.0,-999.0,77,-99.99,,,-99.99,,2013-06-30 08:33:00,
2013-06-30 02:42:00,61.0,54.0,30.13,North,0,0.0,-999.0,77,-99.99,,,-99.99,,2013-06-30 08:42:00,
2013-06-30 02:53:00,61.0,54.0,30.13,North,0,0.0,-999.0,77,-99.99,,,-99.99,,2013-06-30 08:53:00,
2013-06-30 03:01:00,61.0,54.0,30.13,North,0,0.0,-999.0,77,-99.99,,,-99.99,,2013-06-30 09:01:00,
2013-06-30 03:23:00,61.0,54.0,30.12,North,0,0.0,-999.0,77,-99.99,,,-99.99,,2013-06-30 09:23:00,
2013-06-30 03:33:00,61.0,55.0,30.12,North,0,0.0,-999.0,82,-99.99,,,-99.99,,2013-06-30 09:33:00,
2013-06-30 03:43:00,61.0,55.0,30.12,North,0,0.0,-999.0,82,-99.99,,,-99.99,,2013-06-30 09:43:00,
2013-06-30 04:02:00,57.0,52.0,30.11,North,0,0.0,-999.0,82,-99.99,,,-99.99,,2013-06-30 10:02:00,
2013-06-30 04:11:00,57.0,54.0,30.12,North,0,0.0,-999.0,87,-99.99,,,-99.99,,2013-06-30 10:11:00,
2013-06-30 04:22:00,57.0,54.0,30.12,North,0,0.0,-999.0,87,-99.99,,,-99.99,,2013-06-30 10:22:00,
2013-06-30 04:33:00,57.0,52.0,30.12,North,0,0.0,-999.0,82,-99.99,,,-99.99,,2013-06-30 10:33:00,
2013-06-30 04:42:00,57.0,52.0,30.12,North,0,0.0,-999.0,82,-99.99,,,-99.99,,2013-06-30 10:42:00,
2013-06-30 05:02:00,57.0,52.0,30.12,North,0,0.0,-999.0,82,-99.99,,,-99.99,,2013-06-30 11:02:00,
2013-06-30 05:22:00,57.0,52.0,30.12,North,0,0.0,-999.0,82,-99.99,,,-99.99,,2013-06-30 11:22:00,
2013-06-30 05:33:00,57.0,52.0,30.12,North,0,0.0,-999.0,82,-99.99,,,-99.99,,2013-06-30 11:33:00,
2013-06-30 05:43:00,57.0,52.0,30.12,North,0,0.0,-999.0,82,-99.99,,,-99.99,,2013-06-30 11:43:00,
2013-06-30 06:02:00,57.0,52.0,30.12,North,0,0.0,-999.0,82,-99.99,,,-99.99,,2013-06-30 12:02:00,
2013-06-30 06:11:00,57.0,52.0,30.12,North,0,0.0,-999.0,82,-99.99,,,-99.99,,2013-06-30 12:11:00,
2013-06-30 06:24:00,57.0,52.0,30.12,North,0,0.0,-999.0,82,-99.99,,,-99.99,,2013-06-30 12:24:00,
2013-06-30 06:43:00,59.0,54.0,30.13,North,0,0.0,-999.0,82,-99.99,,,-99.99,,2013-06-30 12:43:00,
2013-06-30 07:02:00,61.0,54.0,30.13,North,0,0.0,-999.0,77,-99.99,,,-99.99,,2013-06-30 13:02:00,
2013-06-30 07:22:00,63.0,55.0,30.14,North,0,0.0,-999.0,77,-99.99,,,-99.99,,2013-06-30 13:22:00,
2013-06-30 07:33:00,63.0,55.0,30.14,North,0,0.0,-999.0,77,-99.99,,,-99.99,,2013-06-30 13:33:00,
2013-06-30 07:43:00,63.0,55.0,30.14,North,0,0.0,-999.0,77,-99.99,,,-99.99,,2013-06-30 13:43:00,
2013-06-30 07:53:00,64.0,55.0,30.14,North,0,0.0,-999.0,72,-99.99,,,-99.99,,2013-06-30 13:53:00,
2013-06-30 08:02:00,64.0,55.0,30.14,North,0,0.0,-999.0,72,-99.99,,,-99.99,,2013-06-30 14:02:00,
2013-06-30 08:22:00,66.0,57.0,30.14,North,0,0.0,-999.0,72,-99.99,,,-99.99,,2013-06-30 14:22:00,
2013-06-30 08:33:00,66.0,55.0,30.14,North,0,0.0,-999.0,68,-99.99,,,-99.99,,2013-06-30 14:33:00,
2013-06-30 08:44:00,66.0,55.0,30.14,North,0,0.0,-999.0,68,-99.99,,,-99.99,,2013-06-30 14:44:00,
2013-06-30 08:52:00,66.0,57.0,30.15,North,0,0.0,-999.0,72,-99.99,,,-99.99,,2013-06-30 14:52:00,
2013-06-30 09:02:00,66.0,57.0,30.15,North,0,0.0,-999.0,72,-99.99,,,-99.99,,2013-06-30 15:02:00,
2013-06-30 09:23:00,68.0,57.0,30.15,North,0,0.0,-999.0,68,-99.99,,,-99.99,,2013-06-30 15:23:00,
2013-06-30 09:34:00,70.0,59.0,30.14,North,0,0.0,-999.0,68,-99.99,,,-99.99,,2013-06-30 15:34:00,
2013-06-30 09:44:00,70.0,59.0,30.14,North,0,0.0,-999.0,68,-99.99,,,-99.99,,2013-06-30 15:44:00,
2013-06-30 10:01:00,70.0,59.0,30.14,North,0,0.0,-999.0,68,-99.99,,,-99.99,,2013-06-30 16:01:00,
2013-06-30 10:21:00,72.0,59.0,30.14,North,0,0.0,-999.0,64,-99.99,,,-99.99,,2013-06-30 16:21:00,
2013-06-30 10:44:00,72.0,55.0,30.13,SSW,210,5.0,-999.0,56,-99.99,,,-99.99,,2013-06-30 16:44:00,
2013-06-30 11:01:00,73.0,57.0,30.13,North,0,0.0,-999.0,56,-99.99,,,-99.99,,2013-06-30 17:01:00,
2013-06-30 11:11:00,73.0,57.0,30.13,North,0,0.0,-999.0,56,-99.99,,,-99.99,,2013-06-30 17:11:00,
2013-06-30 11:43:00,75.0,57.0,30.13,North,0,0.0,-999.0,53,-99.99,,,-99.99,,2013-06-30 17:43:00,
2013-06-30 11:52:00,75.0,57.0,30.13,North,0,0.0,-999.0,53,-99.99,,,-99.99,,2013-06-30 17:52:00,
2013-06-30 12:02:00,75.0,57.0,30.13,North,0,0.0,-999.0,53,-99.99,,,-99.99,,2013-06-30 18:02:00,
2013-06-30 12:22:00,77.0,57.0,30.13,North,0,0.0,-999.0,50,-99.99,,,-99.99,,2013-06-30 18:22:00,
2013-06-30 12:43:00,79.0,57.0,30.13,North,0,0.0,-999.0,47,-99.99,,,-99.99,,2013-06-30 18:43:00,
2013-06-30 12:53:00,79.0,57.0,30.13,North,0,0.0,-999.0,47,-99.99,,,-99.99,,2013-06-30 18:53:00,
2013-06-30 13:01:00,79.0,57.0,30.13,North,0,0.0,-999.0,47,-99.99,,,-99.99,,2013-06-30 19:01:00,
2013-06-30 13:22:00,81.0,55.0,30.13,North,0,0.0,-999.0,41,-99.99,,,-99.99,,2013-06-30 19:22:00,
2013-06-30 13:33:00,81.0,55.0,30.13,North,0,0.0,-999.0,41,-99.99,,,-99.99,,2013-06-30 19:33:00,
2013-06-30 13:43:00,81.0,55.0,30.13,North,0,0.0,-999.0,41,-99.99,,,-99.99,,2013-06-30 19:43:00,
2013-06-30 13:53:00,82.0,57.0,30.12,North,0,0.0,-999.0,42,-99.99,,,-99.99,,2013-06-30 19:53:00,
2013-06-30 14:02:00,82.0,57.0,30.12,North,0,0.0,-999.0,42,-99.99,,,-99.99,,2013-06-30 20:02:00,
2013-06-30 14:22:00,82.0,57.0,30.12,NE,50,6.0,-999.0,42,-99.99,,,-99.99,,2013-06-30 20:22:00,
2013-06-30 14:34:00,84.0,55.0,30.12,ENE,60,7.0,-999.0,37,-99.99,,,-99.99,,2013-06-30 20:34:00,
2013-06-30 14:42:00,84.0,55.0,30.12,ENE,60,7.0,-999.0,37,-99.99,,,-99.99,,2013-06-30 20:42:00,
2013-06-30 15:01:00,84.0,54.0,30.12,ENE,70,5.0,-999.0,34,-99.99,,,-99.99,,2013-06-30 21:01:00,
2013-06-30 15:22:00,84.0,54.0,30.11,North,0,0.0,-999.0,34,-99.99,,,-99.99,,2013-06-30 21:22:00,
2013-06-30 15:34:00,84.0,54.0,30.11,North,0,0.0,-999.0,34,-99.99,,,-99.99,,2013-06-30 21:34:00,
2013-06-30 15:43:00,84.0,54.0,30.11,North,0,0.0,-999.0,34,-99.99,,,-99.99,,2013-06-30 21:43:00,
2013-06-30 16:01:00,84.0,54.0,30.10,North,0,0.0,-999.0,34,-99.99,,,-99.99,,2013-06-30 22:01:00,
2013-06-30 16:11:00,86.0,54.0,30.10,North,0,0.0,-999.0,33,-99.99,,,-99.99,,2013-06-30 22:11:00,
2013-06-30 16:22:00,86.0,54.0,30.10,North,0,0.0,-999.0,33,-99.99,,,-99.99,,2013-06-30 22:22:00,
2013-06-30 16:43:00,88.0,54.0,30.10,North,10,5.0,-999.0,31,-99.99,,,-99.99,,2013-06-30 22:43:00,
2013-06-30 16:52:00,88.0,54.0,30.10,North,10,5.0,-999.0,31,-99.99,,,-99.99,,2013-06-30 22:52:00,
2013-06-30 17:01:00,88.0,54.0,30.10,North,10,5.0,-999.0,31,-99.99,,,-99.99,,2013-06-30 23:01:00,
2013-06-30 17:11:00,88.0,54.0,30.10,North,10,5.0,-999.0,31,-99.99,,,-99.99,,2013-06-30 23:11:00,
2013-06-30 17:22:00,84.0,54.0,30.10,North,0,0.0,-999.0,34,-99.99,,,-99.99,,2013-06-30 23:22:00,
2013-06-30 17:43:00,84.0,54.0,30.10,North,360,5.0,-999.0,34,-99.99,,,-99.99,,2013-06-30 23:43:00,
2013-06-30 18:01:00,84.0,54.0,30.10,North,10,5.0,-999.0,34,-99.99,,,-99.99,,2013-07-01 00:01:00,
2013-06-30 18:22:00,84.0,57.0,30.08,NE,40,6.0,-999.0,39,-99.99,,,-99.99,,2013-07-01 00:22:00,
2013-06-30 18:33:00,84.0,57.0,30.09,North,0,0.0,-999.0,39,-99.99,,,-99.99,,2013-07-01 00:33:00,
2013-06-30 18:42:00,84.0,57.0,30.09,North,0,0.0,-999.0,39,-99.99,,,-99.99,,2013-07-01 00:42:00,
2013-06-30 18:52:00,84.0,57.0,30.09,North,0,0.0,-999.0,39,-99.99,,,-99.99,,2013-07-01 00:52:00,
2013-06-30 19:01:00,84.0,57.0,30.09,North,0,0.0,-999.0,39,-99.99,,,-99.99,,2013-07-01 01:01:00,
2013-06-30 19:11:00,84.0,57.0,30.09,North,0,0.0,-999.0,39,-99.99,,,-99.99,,2013-07-01 01:11:00,
2013-06-30 19:22:00,84.0,57.0,30.09,North,0,0.0,-999.0,39,-99.99,,,-99.99,,2013-07-01 01:22:00,
2013-06-30 19:33:00,88.0,55.0,30.09,North,350,6.0,-999.0,33,-99.99,,,-99.99,,2013-07-01 01:33:00,
2013-06-30 19:42:00,88.0,55.0,30.09,North,350,6.0,-999.0,33,-99.99,,,-99.99,,2013-07-01 01:42:00,
2013-06-30 20:02:00,86.0,55.0,30.09,North,10,7.0,-999.0,35,-99.99,,,-99.99,,2013-07-01 02:02:00,
2013-06-30 20:22:00,84.0,55.0,30.09,NNE,20,6.0,-999.0,37,-99.99,,,-99.99,,2013-07-01 02:22:00,
2013-06-30 20:33:00,82.0,55.0,30.10,NNE,20,6.0,-999.0,39,-99.99,,,-99.99,,2013-07-01 02:33:00,
2013-06-30 20:43:00,82.0,55.0,30.10,NNE,20,6.0,-999.0,39,-99.99,,,-99.99,,2013-07-01 02:43:00,
2013-06-30 21:01:00,82.0,55.0,30.10,North,10,6.0,-999.0,39,-99.99,,,-99.99,,2013-07-01 03:01:00,
2013-06-30 21:23:00,81.0,55.0,30.11,North,10,5.0,-999.0,41,-99.99,,,-99.99,,2013-07-01 03:23:00,
2013-06-30 21:43:00,77.0,54.0,30.11,North,0,0.0,-999.0,44,-99.99,,,-99.99,,2013-07-01 03:43:00,
2013-06-30 22:01:00,77.0,54.0,30.12,NNE,30,5.0,-999.0,44,-99.99,,,-99.99,,2013-07-01 04:01:00,
2013-06-30 22:22:00,75.0,54.0,30.13,North,0,0.0,-999.0,46,-99.99,,,-99.99,,2013-07-01 04:22:00,
2013-06-30 22:32:00,75.0,54.0,30.13,North,0,0.0,-999.0,46,-99.99,,,-99.99,,2013-07-01 04:32:00,
2013-06-30 22:43:00,75.0,54.0,30.13,North,0,0.0,-999.0,46,-99.99,,,-99.99,,2013-07-01 04:43:00,
2013-06-30 22:53:00,75.0,52.0,30.13,North,0,0.0,-999.0,43,-99.99,,,-99.99,,2013-07-01 04:53:00,
2013-06-30 23:01:00,75.0,52.0,30.13,North,0,0.0,-999.0,43,-99.99,,,-99.99,,2013-07-01 05:01:00,
2013-06-30 23:22:00,73.0,52.0,30.14,NNE,20,6.0,-999.0,46,-99.99,,,-99.99,,2013-07-01 05:22:00,
2013-06-30 23:42:00,73.0,52.0,30.14,NNE,20,5.0,-999.0,46,-99.99,,,-99.99,,2013-07-01 05:42:00,
2013-06-30 23:52:00,73.0,52.0,30.15,NNE,20,6.0,-999.0,46,-99.99,,,-99.99,,2013-07-01 05:52:00,